sensor_id;sensor_type;location;lat;lon;timestamp;P1;durP1;ratioP1;P2;durP2;ratioP2
7517;SDS011;3800;48.922;9.444;2023-02-25T00:01:29;9.30;;;7.90;;
7517;SDS011;3800;48.922;9.444;2023-02-25T00:03:56;10.23;;;7.27;;
7517;SDS011;3800;48.922;9.444;2023-02-25T00:06:24;12.20;;;7.43;;
7517;SDS011;3800;48.922;9.444;2023-02-25T00:08:52;10.00;;;7.40;;
7517;SDS011;3800;48.922;9.444;2023-02-25T00:11:20;11.07;;;7.50;;
7517;SDS011;3800;48.922;9.444;2023-02-25T00:13:47;11.50;;;8.30;;
7517;SDS011;3800;48.922;9.444;2023-02-25T00:16:15;10.90;;;8.50;;
7517;SDS011;3800;48.922;9.444;2023-02-25T00:18:43;9.17;;;8.07;;
7517;SDS011;3800;48.922;9.444;2023-02-25T00:21:11;11.07;;;7.87;;
7517;SDS011;3800;48.922;9.444;2023-02-25T00:23:42;10.17;;;8.00;;
7517;SDS011;3800;48.922;9.444;2023-02-25T00:26:12;13.03;;;8.30;;
7517;SDS011;3800;48.922;9.444;2023-02-25T00:28:40;10.33;;;7.43;;
7517;SDS011;3800;48.922;9.444;2023-02-25T00:31:08;11.17;;;8.10;;
7517;SDS011;3800;48.922;9.444;2023-02-25T00:33:36;9.93;;;7.37;;
7517;SDS011;3800;48.922;9.444;2023-02-25T00:36:05;9.63;;;7.37;;
7517;SDS011;3800;48.922;9.444;2023-02-25T00:38:32;9.10;;;6.90;;
7517;SDS011;3800;48.922;9.444;2023-02-25T00:41:02;9.90;;;7.10;;
7517;SDS011;3800;48.922;9.444;2023-02-25T00:43:30;10.63;;;6.70;;
7517;SDS011;3800;48.922;9.444;2023-02-25T00:45:57;8.83;;;7.00;;
7517;SDS011;3800;48.922;9.444;2023-02-25T00:48:25;7.43;;;6.17;;
7517;SDS011;3800;48.922;9.444;2023-02-25T00:50:53;10.60;;;6.83;;
7517;SDS011;3800;48.922;9.444;2023-02-25T00:53:20;8.30;;;6.37;;
7517;SDS011;3800;48.922;9.444;2023-02-25T00:55:56;8.03;;;6.00;;
7517;SDS011;3800;48.922;9.444;2023-02-25T00:58:16;10.77;;;6.17;;
7517;SDS011;3800;48.922;9.444;2023-02-25T01:00:45;7.70;;;6.73;;
7517;SDS011;3800;48.922;9.444;2023-02-25T01:03:13;8.97;;;6.00;;
7517;SDS011;3800;48.922;9.444;2023-02-25T01:05:40;7.60;;;6.20;;
7517;SDS011;3800;48.922;9.444;2023-02-25T01:08:08;8.07;;;6.00;;
7517;SDS011;3800;48.922;9.444;2023-02-25T01:10:35;8.43;;;6.10;;
7517;SDS011;3800;48.922;9.444;2023-02-25T01:13:03;8.23;;;6.07;;
7517;SDS011;3800;48.922;9.444;2023-02-25T01:15:31;9.57;;;6.47;;
7517;SDS011;3800;48.922;9.444;2023-02-25T01:17:58;8.83;;;6.20;;
7517;SDS011;3800;48.922;9.444;2023-02-25T01:20:26;9.17;;;6.17;;
7517;SDS011;3800;48.922;9.444;2023-02-25T01:22:54;7.47;;;5.63;;
7517;SDS011;3800;48.922;9.444;2023-02-25T01:25:21;9.40;;;6.40;;
7517;SDS011;3800;48.922;9.444;2023-02-25T01:27:49;6.83;;;6.07;;
7517;SDS011;3800;48.922;9.444;2023-02-25T01:30:16;9.93;;;6.07;;
7517;SDS011;3800;48.922;9.444;2023-02-25T01:32:44;7.30;;;5.90;;
7517;SDS011;3800;48.922;9.444;2023-02-25T01:35:12;8.97;;;5.70;;
7517;SDS011;3800;48.922;9.444;2023-02-25T01:37:39;6.60;;;5.73;;
7517;SDS011;3800;48.922;9.444;2023-02-25T01:40:08;8.90;;;6.10;;
7517;SDS011;3800;48.922;9.444;2023-02-25T01:42:36;8.17;;;5.73;;
7517;SDS011;3800;48.922;9.444;2023-02-25T01:47:47;7.50;;;5.73;;
7517;SDS011;3800;48.922;9.444;2023-02-25T01:50:16;6.50;;;5.80;;
7517;SDS011;3800;48.922;9.444;2023-02-25T01:52:42;8.37;;;5.97;;
7517;SDS011;3800;48.922;9.444;2023-02-25T01:55:10;8.43;;;5.90;;
7517;SDS011;3800;48.922;9.444;2023-02-25T01:57:37;6.43;;;5.70;;
7517;SDS011;3800;48.922;9.444;2023-02-25T02:00:07;9.17;;;5.93;;
7517;SDS011;3800;48.922;9.444;2023-02-25T02:02:38;7.30;;;5.87;;
7517;SDS011;3800;48.922;9.444;2023-02-25T02:05:05;8.00;;;5.30;;
7517;SDS011;3800;48.922;9.444;2023-02-25T02:07:33;6.93;;;5.97;;
7517;SDS011;3800;48.922;9.444;2023-02-25T02:10:01;6.77;;;5.63;;
7517;SDS011;3800;48.922;9.444;2023-02-25T02:12:31;8.20;;;5.47;;
7517;SDS011;3800;48.922;9.444;2023-02-25T02:14:58;6.20;;;5.33;;
7517;SDS011;3800;48.922;9.444;2023-02-25T02:17:26;6.90;;;4.90;;
7517;SDS011;3800;48.922;9.444;2023-02-25T02:20:01;5.73;;;5.03;;
7517;SDS011;3800;48.922;9.444;2023-02-25T02:22:46;6.17;;;5.00;;
7517;SDS011;3800;48.922;9.444;2023-02-25T02:27:52;7.17;;;4.20;;
7517;SDS011;3800;48.922;9.444;2023-02-25T02:30:39;6.37;;;4.60;;
7517;SDS011;3800;48.922;9.444;2023-02-25T02:33:28;7.47;;;4.40;;
7517;SDS011;3800;48.922;9.444;2023-02-25T02:36:01;5.47;;;4.37;;
7517;SDS011;3800;48.922;9.444;2023-02-25T02:38:34;6.97;;;4.13;;
7517;SDS011;3800;48.922;9.444;2023-02-25T02:41:02;8.43;;;4.33;;
7517;SDS011;3800;48.922;9.444;2023-02-25T02:43:44;6.03;;;4.23;;
7517;SDS011;3800;48.922;9.444;2023-02-25T02:46:14;6.60;;;4.53;;
7517;SDS011;3800;48.922;9.444;2023-02-25T02:48:43;8.03;;;5.07;;
7517;SDS011;3800;48.922;9.444;2023-02-25T02:51:22;7.03;;;4.00;;
7517;SDS011;3800;48.922;9.444;2023-02-25T02:53:51;4.93;;;3.63;;
7517;SDS011;3800;48.922;9.444;2023-02-25T02:56:17;5.50;;;3.70;;
7517;SDS011;3800;48.922;9.444;2023-02-25T02:58:46;6.97;;;3.70;;
7517;SDS011;3800;48.922;9.444;2023-02-25T03:01:17;4.70;;;3.37;;
7517;SDS011;3800;48.922;9.444;2023-02-25T03:03:44;7.47;;;3.67;;
7517;SDS011;3800;48.922;9.444;2023-02-25T03:06:15;5.17;;;3.50;;
7517;SDS011;3800;48.922;9.444;2023-02-25T03:08:43;9.90;;;4.00;;
7517;SDS011;3800;48.922;9.444;2023-02-25T03:11:13;6.43;;;3.80;;
7517;SDS011;3800;48.922;9.444;2023-02-25T03:13:40;7.33;;;3.40;;
7517;SDS011;3800;48.922;9.444;2023-02-25T03:16:09;7.10;;;3.73;;
7517;SDS011;3800;48.922;9.444;2023-02-25T03:18:37;3.97;;;3.20;;
7517;SDS011;3800;48.922;9.444;2023-02-25T03:21:07;7.63;;;3.47;;
7517;SDS011;3800;48.922;9.444;2023-02-25T03:23:34;6.23;;;3.40;;
7517;SDS011;3800;48.922;9.444;2023-02-25T03:28:52;4.50;;;3.40;;
7517;SDS011;3800;48.922;9.444;2023-02-25T03:33:56;5.63;;;3.80;;
7517;SDS011;3800;48.922;9.444;2023-02-25T03:36:30;7.13;;;3.97;;
7517;SDS011;3800;48.922;9.444;2023-02-25T03:38:55;6.43;;;3.40;;
7517;SDS011;3800;48.922;9.444;2023-02-25T03:41:24;5.53;;;3.57;;
7517;SDS011;3800;48.922;9.444;2023-02-25T03:43:52;5.30;;;3.70;;
7517;SDS011;3800;48.922;9.444;2023-02-25T03:46:18;5.00;;;3.47;;
7517;SDS011;3800;48.922;9.444;2023-02-25T03:48:47;8.27;;;3.90;;
7517;SDS011;3800;48.922;9.444;2023-02-25T03:51:15;6.60;;;3.93;;
7517;SDS011;3800;48.922;9.444;2023-02-25T03:53:42;6.53;;;4.10;;
7517;SDS011;3800;48.922;9.444;2023-02-25T03:56:10;8.30;;;3.87;;
7517;SDS011;3800;48.922;9.444;2023-02-25T03:58:39;8.47;;;3.83;;
7517;SDS011;3800;48.922;9.444;2023-02-25T04:01:06;6.47;;;3.97;;
7517;SDS011;3800;48.922;9.444;2023-02-25T04:03:33;6.53;;;4.07;;
7517;SDS011;3800;48.922;9.444;2023-02-25T04:06:01;5.63;;;4.13;;
7517;SDS011;3800;48.922;9.444;2023-02-25T04:08:28;6.40;;;4.33;;
7517;SDS011;3800;48.922;9.444;2023-02-25T04:10:56;7.53;;;4.60;;
7517;SDS011;3800;48.922;9.444;2023-02-25T04:13:24;6.50;;;3.93;;
7517;SDS011;3800;48.922;9.444;2023-02-25T04:15:51;7.83;;;4.20;;
7517;SDS011;3800;48.922;9.444;2023-02-25T04:18:19;6.87;;;4.17;;
7517;SDS011;3800;48.922;9.444;2023-02-25T04:20:47;7.93;;;4.20;;
7517;SDS011;3800;48.922;9.444;2023-02-25T04:23:14;5.73;;;4.37;;
7517;SDS011;3800;48.922;9.444;2023-02-25T04:25:42;6.33;;;4.20;;
7517;SDS011;3800;48.922;9.444;2023-02-25T04:28:10;8.47;;;4.50;;
7517;SDS011;3800;48.922;9.444;2023-02-25T04:30:37;7.03;;;4.67;;
7517;SDS011;3800;48.922;9.444;2023-02-25T04:33:06;6.53;;;4.23;;
7517;SDS011;3800;48.922;9.444;2023-02-25T04:35:33;6.93;;;3.87;;
7517;SDS011;3800;48.922;9.444;2023-02-25T04:38:01;6.73;;;3.97;;
7517;SDS011;3800;48.922;9.444;2023-02-25T04:40:28;8.97;;;4.10;;
7517;SDS011;3800;48.922;9.444;2023-02-25T04:42:56;5.70;;;3.87;;
7517;SDS011;3800;48.922;9.444;2023-02-25T04:45:24;7.10;;;4.43;;
7517;SDS011;3800;48.922;9.444;2023-02-25T04:47:52;5.17;;;3.10;;
7517;SDS011;3800;48.922;9.444;2023-02-25T04:50:19;5.67;;;3.63;;
7517;SDS011;3800;48.922;9.444;2023-02-25T04:52:47;6.50;;;3.30;;
7517;SDS011;3800;48.922;9.444;2023-02-25T04:55:14;7.17;;;3.27;;
7517;SDS011;3800;48.922;9.444;2023-02-25T04:57:42;6.53;;;3.30;;
7517;SDS011;3800;48.922;9.444;2023-02-25T05:00:12;5.27;;;3.00;;
7517;SDS011;3800;48.922;9.444;2023-02-25T05:02:38;3.63;;;3.00;;
7517;SDS011;3800;48.922;9.444;2023-02-25T05:05:06;5.33;;;3.57;;
7517;SDS011;3800;48.922;9.444;2023-02-25T05:07:35;7.73;;;3.50;;
7517;SDS011;3800;48.922;9.444;2023-02-25T05:10:02;6.93;;;3.77;;
7517;SDS011;3800;48.922;9.444;2023-02-25T05:12:31;5.17;;;3.17;;
7517;SDS011;3800;48.922;9.444;2023-02-25T05:14:59;5.23;;;2.97;;
7517;SDS011;3800;48.922;9.444;2023-02-25T05:17:26;4.50;;;2.60;;
7517;SDS011;3800;48.922;9.444;2023-02-25T05:19:54;6.30;;;3.17;;
7517;SDS011;3800;48.922;9.444;2023-02-25T05:22:22;5.17;;;2.67;;
7517;SDS011;3800;48.922;9.444;2023-02-25T05:24:49;5.93;;;2.87;;
7517;SDS011;3800;48.922;9.444;2023-02-25T05:27:17;6.57;;;2.53;;
7517;SDS011;3800;48.922;9.444;2023-02-25T05:29:45;5.23;;;2.50;;
7517;SDS011;3800;48.922;9.444;2023-02-25T05:32:12;4.43;;;2.90;;
7517;SDS011;3800;48.922;9.444;2023-02-25T05:34:40;6.27;;;2.67;;
7517;SDS011;3800;48.922;9.444;2023-02-25T05:37:07;3.30;;;2.17;;
7517;SDS011;3800;48.922;9.444;2023-02-25T05:39:35;9.00;;;3.23;;
7517;SDS011;3800;48.922;9.444;2023-02-25T05:42:03;4.97;;;2.50;;
7517;SDS011;3800;48.922;9.444;2023-02-25T05:44:30;5.40;;;2.77;;
7517;SDS011;3800;48.922;9.444;2023-02-25T05:46:58;4.93;;;2.43;;
7517;SDS011;3800;48.922;9.444;2023-02-25T05:49:26;3.27;;;2.10;;
7517;SDS011;3800;48.922;9.444;2023-02-25T05:51:53;6.93;;;2.60;;
7517;SDS011;3800;48.922;9.444;2023-02-25T05:54:21;4.67;;;2.40;;
7517;SDS011;3800;48.922;9.444;2023-02-25T05:56:50;5.63;;;2.40;;
7517;SDS011;3800;48.922;9.444;2023-02-25T05:59:17;4.67;;;2.57;;
7517;SDS011;3800;48.922;9.444;2023-02-25T06:01:44;6.93;;;2.37;;
7517;SDS011;3800;48.922;9.444;2023-02-25T06:04:13;3.53;;;2.20;;
7517;SDS011;3800;48.922;9.444;2023-02-25T06:06:40;4.57;;;2.27;;
7517;SDS011;3800;48.922;9.444;2023-02-25T06:09:08;3.87;;;2.10;;
7517;SDS011;3800;48.922;9.444;2023-02-25T06:11:36;5.47;;;2.20;;
7517;SDS011;3800;48.922;9.444;2023-02-25T06:14:03;2.83;;;1.90;;
7517;SDS011;3800;48.922;9.444;2023-02-25T06:16:31;3.93;;;2.13;;
7517;SDS011;3800;48.922;9.444;2023-02-25T06:18:59;5.10;;;2.00;;
7517;SDS011;3800;48.922;9.444;2023-02-25T06:21:26;5.27;;;2.10;;
7517;SDS011;3800;48.922;9.444;2023-02-25T06:23:54;6.63;;;2.17;;
7517;SDS011;3800;48.922;9.444;2023-02-25T06:26:21;3.90;;;2.10;;
7517;SDS011;3800;48.922;9.444;2023-02-25T06:28:49;3.57;;;2.00;;
7517;SDS011;3800;48.922;9.444;2023-02-25T06:31:18;4.97;;;2.10;;
7517;SDS011;3800;48.922;9.444;2023-02-25T06:33:44;4.60;;;2.10;;
7517;SDS011;3800;48.922;9.444;2023-02-25T06:36:13;5.67;;;2.20;;
7517;SDS011;3800;48.922;9.444;2023-02-25T06:38:41;3.83;;;2.07;;
7517;SDS011;3800;48.922;9.444;2023-02-25T06:41:11;4.77;;;2.03;;
7517;SDS011;3800;48.922;9.444;2023-02-25T06:43:37;3.43;;;2.20;;
7517;SDS011;3800;48.922;9.444;2023-02-25T06:46:05;3.83;;;2.17;;
7517;SDS011;3800;48.922;9.444;2023-02-25T06:48:33;4.60;;;2.30;;
7517;SDS011;3800;48.922;9.444;2023-02-25T06:51:00;5.60;;;2.50;;
7517;SDS011;3800;48.922;9.444;2023-02-25T06:53:28;3.73;;;2.27;;
7517;SDS011;3800;48.922;9.444;2023-02-25T06:55:57;6.03;;;2.00;;
7517;SDS011;3800;48.922;9.444;2023-02-25T06:58:25;6.20;;;1.90;;
7517;SDS011;3800;48.922;9.444;2023-02-25T07:00:52;6.57;;;2.20;;
7517;SDS011;3800;48.922;9.444;2023-02-25T07:03:21;3.50;;;2.00;;
7517;SDS011;3800;48.922;9.444;2023-02-25T07:05:48;4.53;;;2.27;;
7517;SDS011;3800;48.922;9.444;2023-02-25T07:08:17;6.63;;;2.60;;
7517;SDS011;3800;48.922;9.444;2023-02-25T07:10:44;3.37;;;2.23;;
7517;SDS011;3800;48.922;9.444;2023-02-25T07:13:12;6.77;;;2.27;;
7517;SDS011;3800;48.922;9.444;2023-02-25T07:15:40;5.33;;;2.33;;
7517;SDS011;3800;48.922;9.444;2023-02-25T07:18:07;6.77;;;2.20;;
7517;SDS011;3800;48.922;9.444;2023-02-25T07:20:35;3.20;;;1.80;;
7517;SDS011;3800;48.922;9.444;2023-02-25T07:23:03;4.07;;;2.00;;
7517;SDS011;3800;48.922;9.444;2023-02-25T07:25:30;6.73;;;2.23;;
7517;SDS011;3800;48.922;9.444;2023-02-25T07:27:58;4.30;;;2.10;;
7517;SDS011;3800;48.922;9.444;2023-02-25T07:30:25;4.03;;;2.00;;
7517;SDS011;3800;48.922;9.444;2023-02-25T07:32:53;6.67;;;2.37;;
7517;SDS011;3800;48.922;9.444;2023-02-25T07:35:21;5.53;;;2.17;;
7517;SDS011;3800;48.922;9.444;2023-02-25T07:37:48;4.00;;;2.10;;
7517;SDS011;3800;48.922;9.444;2023-02-25T07:40:16;2.80;;;1.80;;
7517;SDS011;3800;48.922;9.444;2023-02-25T07:42:44;2.47;;;1.80;;
7517;SDS011;3800;48.922;9.444;2023-02-25T07:45:12;4.33;;;2.10;;
7517;SDS011;3800;48.922;9.444;2023-02-25T07:47:40;2.37;;;1.70;;
7517;SDS011;3800;48.922;9.444;2023-02-25T07:50:07;5.37;;;2.17;;
7517;SDS011;3800;48.922;9.444;2023-02-25T07:52:36;4.63;;;2.40;;
7517;SDS011;3800;48.922;9.444;2023-02-25T07:55:04;6.57;;;2.97;;
7517;SDS011;3800;48.922;9.444;2023-02-25T07:57:32;5.30;;;2.20;;
7517;SDS011;3800;48.922;9.444;2023-02-25T08:00:03;5.20;;;2.30;;
7517;SDS011;3800;48.922;9.444;2023-02-25T08:02:30;6.03;;;2.70;;
7517;SDS011;3800;48.922;9.444;2023-02-25T08:04:57;3.57;;;2.27;;
7517;SDS011;3800;48.922;9.444;2023-02-25T08:07:27;6.07;;;2.17;;
7517;SDS011;3800;48.922;9.444;2023-02-25T08:09:54;4.47;;;2.27;;
7517;SDS011;3800;48.922;9.444;2023-02-25T08:12:22;3.27;;;2.07;;
7517;SDS011;3800;48.922;9.444;2023-02-25T08:14:49;3.87;;;2.10;;
7517;SDS011;3800;48.922;9.444;2023-02-25T08:17:17;3.67;;;2.10;;
7517;SDS011;3800;48.922;9.444;2023-02-25T08:19:45;6.57;;;2.37;;
7517;SDS011;3800;48.922;9.444;2023-02-25T08:22:13;4.47;;;2.07;;
7517;SDS011;3800;48.922;9.444;2023-02-25T08:24:41;7.90;;;2.20;;
7517;SDS011;3800;48.922;9.444;2023-02-25T08:27:08;4.40;;;1.97;;
7517;SDS011;3800;48.922;9.444;2023-02-25T08:29:36;4.53;;;2.20;;
7517;SDS011;3800;48.922;9.444;2023-02-25T08:32:05;4.40;;;2.13;;
7517;SDS011;3800;48.922;9.444;2023-02-25T08:34:32;5.23;;;2.30;;
7517;SDS011;3800;48.922;9.444;2023-02-25T08:37:02;7.33;;;2.20;;
7517;SDS011;3800;48.922;9.444;2023-02-25T08:39:29;6.30;;;2.20;;
7517;SDS011;3800;48.922;9.444;2023-02-25T08:41:57;2.87;;;1.70;;
7517;SDS011;3800;48.922;9.444;2023-02-25T08:44:25;4.33;;;2.43;;
7517;SDS011;3800;48.922;9.444;2023-02-25T08:46:53;4.87;;;2.40;;
7517;SDS011;3800;48.922;9.444;2023-02-25T08:49:20;6.70;;;2.63;;
7517;SDS011;3800;48.922;9.444;2023-02-25T08:51:48;4.93;;;2.33;;
7517;SDS011;3800;48.922;9.444;2023-02-25T08:54:16;5.07;;;2.23;;
7517;SDS011;3800;48.922;9.444;2023-02-25T08:56:43;5.27;;;1.90;;
7517;SDS011;3800;48.922;9.444;2023-02-25T08:59:12;4.10;;;1.93;;
7517;SDS011;3800;48.922;9.444;2023-02-25T09:01:40;4.03;;;2.00;;
7517;SDS011;3800;48.922;9.444;2023-02-25T09:04:14;5.63;;;2.20;;
7517;SDS011;3800;48.922;9.444;2023-02-25T09:06:43;6.97;;;2.23;;
7517;SDS011;3800;48.922;9.444;2023-02-25T09:09:11;3.30;;;1.90;;
7517;SDS011;3800;48.922;9.444;2023-02-25T09:11:40;2.93;;;1.90;;
7517;SDS011;3800;48.922;9.444;2023-02-25T09:14:09;5.63;;;1.97;;
7517;SDS011;3800;48.922;9.444;2023-02-25T09:16:36;2.07;;;1.80;;
7517;SDS011;3800;48.922;9.444;2023-02-25T09:19:04;4.43;;;2.00;;
7517;SDS011;3800;48.922;9.444;2023-02-25T09:21:32;4.23;;;2.13;;
7517;SDS011;3800;48.922;9.444;2023-02-25T09:24:00;4.30;;;1.80;;
7517;SDS011;3800;48.922;9.444;2023-02-25T09:26:27;3.43;;;1.90;;
7517;SDS011;3800;48.922;9.444;2023-02-25T09:28:58;2.87;;;1.70;;
7517;SDS011;3800;48.922;9.444;2023-02-25T09:31:27;4.23;;;2.10;;
7517;SDS011;3800;48.922;9.444;2023-02-25T09:33:55;3.87;;;2.30;;
7517;SDS011;3800;48.922;9.444;2023-02-25T09:36:24;3.53;;;1.90;;
7517;SDS011;3800;48.922;9.444;2023-02-25T09:38:52;3.67;;;1.87;;
7517;SDS011;3800;48.922;9.444;2023-02-25T09:41:27;4.20;;;2.10;;
7517;SDS011;3800;48.922;9.444;2023-02-25T09:43:59;3.07;;;1.93;;
7517;SDS011;3800;48.922;9.444;2023-02-25T09:46:31;4.40;;;2.40;;
7517;SDS011;3800;48.922;9.444;2023-02-25T09:49:01;4.20;;;2.40;;
7517;SDS011;3800;48.922;9.444;2023-02-25T09:51:32;4.83;;;2.17;;
7517;SDS011;3800;48.922;9.444;2023-02-25T09:54:07;4.23;;;2.20;;
7517;SDS011;3800;48.922;9.444;2023-02-25T09:56:37;3.40;;;1.90;;
7517;SDS011;3800;48.922;9.444;2023-02-25T09:59:07;2.13;;;1.70;;
7517;SDS011;3800;48.922;9.444;2023-02-25T10:01:34;4.67;;;2.27;;
7517;SDS011;3800;48.922;9.444;2023-02-25T10:04:06;4.17;;;1.60;;
7517;SDS011;3800;48.922;9.444;2023-02-25T10:06:52;4.20;;;1.53;;
7517;SDS011;3800;48.922;9.444;2023-02-25T10:11:58;3.20;;;1.77;;
7517;SDS011;3800;48.922;9.444;2023-02-25T10:14:32;4.20;;;1.70;;
7517;SDS011;3800;48.922;9.444;2023-02-25T10:20:06;7.27;;;2.03;;
7517;SDS011;3800;48.922;9.444;2023-02-25T10:22:31;4.87;;;2.10;;
7517;SDS011;3800;48.922;9.444;2023-02-25T10:25:02;3.63;;;1.70;;
7517;SDS011;3800;48.922;9.444;2023-02-25T10:27:33;2.17;;;1.47;;
7517;SDS011;3800;48.922;9.444;2023-02-25T10:30:01;3.83;;;1.83;;
7517;SDS011;3800;48.922;9.444;2023-02-25T10:32:30;2.90;;;1.77;;
7517;SDS011;3800;48.922;9.444;2023-02-25T10:34:57;4.80;;;1.80;;
7517;SDS011;3800;48.922;9.444;2023-02-25T10:37:25;4.80;;;1.50;;
7517;SDS011;3800;48.922;9.444;2023-02-25T10:39:54;3.63;;;1.67;;
7517;SDS011;3800;48.922;9.444;2023-02-25T10:42:21;3.23;;;1.50;;
7517;SDS011;3800;48.922;9.444;2023-02-25T10:44:49;2.20;;;1.63;;
7517;SDS011;3800;48.922;9.444;2023-02-25T10:47:17;5.13;;;1.63;;
7517;SDS011;3800;48.922;9.444;2023-02-25T10:52:33;4.10;;;1.80;;
7517;SDS011;3800;48.922;9.444;2023-02-25T10:55:02;5.73;;;1.70;;
7517;SDS011;3800;48.922;9.444;2023-02-25T10:57:34;2.80;;;1.40;;
7517;SDS011;3800;48.922;9.444;2023-02-25T11:00:04;2.80;;;1.60;;
7517;SDS011;3800;48.922;9.444;2023-02-25T11:02:31;4.23;;;1.80;;
7517;SDS011;3800;48.922;9.444;2023-02-25T11:04:58;2.93;;;1.70;;
7517;SDS011;3800;48.922;9.444;2023-02-25T11:07:29;3.27;;;1.67;;
7517;SDS011;3800;48.922;9.444;2023-02-25T11:10:07;4.07;;;1.80;;
7517;SDS011;3800;48.922;9.444;2023-02-25T11:12:40;4.40;;;1.70;;
7517;SDS011;3800;48.922;9.444;2023-02-25T11:17:45;3.30;;;1.80;;
7517;SDS011;3800;48.922;9.444;2023-02-25T11:22:51;3.87;;;2.03;;
7517;SDS011;3800;48.922;9.444;2023-02-25T11:25:33;3.70;;;1.80;;
7517;SDS011;3800;48.922;9.444;2023-02-25T11:27:47;2.73;;;1.80;;
7517;SDS011;3800;48.922;9.444;2023-02-25T11:30:17;6.13;;;1.83;;
7517;SDS011;3800;48.922;9.444;2023-02-25T11:32:48;4.07;;;2.07;;
7517;SDS011;3800;48.922;9.444;2023-02-25T11:35:17;6.07;;;2.00;;
7517;SDS011;3800;48.922;9.444;2023-02-25T11:37:45;5.70;;;2.00;;
7517;SDS011;3800;48.922;9.444;2023-02-25T11:40:21;3.87;;;2.17;;
7517;SDS011;3800;48.922;9.444;2023-02-25T11:45:45;4.47;;;2.30;;
7517;SDS011;3800;48.922;9.444;2023-02-25T11:48:17;4.20;;;1.80;;
7517;SDS011;3800;48.922;9.444;2023-02-25T11:50:46;4.67;;;2.33;;
7517;SDS011;3800;48.922;9.444;2023-02-25T11:53:48;2.77;;;2.13;;
7517;SDS011;3800;48.922;9.444;2023-02-25T11:56:05;3.80;;;1.97;;
7517;SDS011;3800;48.922;9.444;2023-02-25T12:01:34;5.77;;;2.13;;
7517;SDS011;3800;48.922;9.444;2023-02-25T12:06:40;4.37;;;2.20;;
7517;SDS011;3800;48.922;9.444;2023-02-25T12:09:29;4.43;;;2.17;;
7517;SDS011;3800;48.922;9.444;2023-02-25T12:13:08;4.30;;;1.90;;
7517;SDS011;3800;48.922;9.444;2023-02-25T12:20:46;3.97;;;2.30;;
7517;SDS011;3800;48.922;9.444;2023-02-25T12:23:28;4.37;;;2.60;;
7517;SDS011;3800;48.922;9.444;2023-02-25T12:26:07;2.70;;;2.10;;
7517;SDS011;3800;48.922;9.444;2023-02-25T12:31:32;5.87;;;2.50;;
7517;SDS011;3800;48.922;9.444;2023-02-25T12:37:06;4.90;;;2.37;;
7517;SDS011;3800;48.922;9.444;2023-02-25T12:39:39;4.53;;;2.60;;
7517;SDS011;3800;48.922;9.444;2023-02-25T12:42:16;4.47;;;2.83;;
7517;SDS011;3800;48.922;9.444;2023-02-25T12:44:50;3.73;;;2.50;;
7517;SDS011;3800;48.922;9.444;2023-02-25T12:47:23;4.17;;;2.77;;
7517;SDS011;3800;48.922;9.444;2023-02-25T12:49:59;2.97;;;2.30;;
7517;SDS011;3800;48.922;9.444;2023-02-25T12:52:36;4.53;;;2.27;;
7517;SDS011;3800;48.922;9.444;2023-02-25T12:57:42;3.97;;;2.87;;
7517;SDS011;3800;48.922;9.444;2023-02-25T13:08:20;5.17;;;2.73;;
7517;SDS011;3800;48.922;9.444;2023-02-25T13:10:52;4.97;;;2.43;;
7517;SDS011;3800;48.922;9.444;2023-02-25T13:13:27;2.93;;;2.33;;
7517;SDS011;3800;48.922;9.444;2023-02-25T13:19:02;6.27;;;2.30;;
7517;SDS011;3800;48.922;9.444;2023-02-25T13:21:34;4.50;;;2.20;;
7517;SDS011;3800;48.922;9.444;2023-02-25T13:24:05;4.97;;;2.50;;
7517;SDS011;3800;48.922;9.444;2023-02-25T13:26:37;6.73;;;2.43;;
7517;SDS011;3800;48.922;9.444;2023-02-25T13:29:53;3.87;;;2.33;;
7517;SDS011;3800;48.922;9.444;2023-02-25T13:32:13;3.93;;;2.03;;
7517;SDS011;3800;48.922;9.444;2023-02-25T13:37:28;4.63;;;2.33;;
7517;SDS011;3800;48.922;9.444;2023-02-25T13:40:15;3.10;;;2.17;;
7517;SDS011;3800;48.922;9.444;2023-02-25T13:42:44;2.90;;;2.10;;
7517;SDS011;3800;48.922;9.444;2023-02-25T13:48:08;4.77;;;2.17;;
7517;SDS011;3800;48.922;9.444;2023-02-25T14:07:18;3.53;;;1.70;;
7517;SDS011;3800;48.922;9.444;2023-02-25T14:09:58;4.10;;;2.10;;
7517;SDS011;3800;48.922;9.444;2023-02-25T14:12:30;4.60;;;2.03;;
7517;SDS011;3800;48.922;9.444;2023-02-25T14:17:45;4.57;;;1.90;;
7517;SDS011;3800;48.922;9.444;2023-02-25T14:23:11;3.57;;;1.70;;
7517;SDS011;3800;48.922;9.444;2023-02-25T14:25:49;3.80;;;1.80;;
7517;SDS011;3800;48.922;9.444;2023-02-25T14:29:29;4.57;;;2.10;;
7517;SDS011;3800;48.922;9.444;2023-02-25T14:33:50;3.90;;;2.07;;
7517;SDS011;3800;48.922;9.444;2023-02-25T14:42:45;5.17;;;2.23;;
7517;SDS011;3800;48.922;9.444;2023-02-25T14:44:57;4.20;;;2.13;;
7517;SDS011;3800;48.922;9.444;2023-02-25T14:47:29;4.67;;;2.40;;
7517;SDS011;3800;48.922;9.444;2023-02-25T14:49:59;6.50;;;2.40;;
7517;SDS011;3800;48.922;9.444;2023-02-25T14:52:33;3.53;;;2.13;;
7517;SDS011;3800;48.922;9.444;2023-02-25T15:00:45;4.80;;;2.50;;
7517;SDS011;3800;48.922;9.444;2023-02-25T15:03:22;4.57;;;1.97;;
7517;SDS011;3800;48.922;9.444;2023-02-25T15:06:02;5.53;;;2.40;;
7517;SDS011;3800;48.922;9.444;2023-02-25T15:11:30;5.07;;;1.90;;
7517;SDS011;3800;48.922;9.444;2023-02-25T15:16:58;6.93;;;2.30;;
7517;SDS011;3800;48.922;9.444;2023-02-25T15:19:49;5.60;;;2.10;;
7517;SDS011;3800;48.922;9.444;2023-02-25T15:22:20;6.03;;;1.90;;
7517;SDS011;3800;48.922;9.444;2023-02-25T15:24:50;4.13;;;2.37;;
7517;SDS011;3800;48.922;9.444;2023-02-25T15:27:52;7.27;;;3.33;;
7517;SDS011;3800;48.922;9.444;2023-02-25T15:30:12;5.10;;;2.90;;
7517;SDS011;3800;48.922;9.444;2023-02-25T15:32:48;4.60;;;2.40;;
7517;SDS011;3800;48.922;9.444;2023-02-25T15:35:21;8.97;;;3.67;;
7517;SDS011;3800;48.922;9.444;2023-02-25T15:38:06;5.50;;;2.40;;
7517;SDS011;3800;48.922;9.444;2023-02-25T15:43:29;4.50;;;3.60;;
7517;SDS011;3800;48.922;9.444;2023-02-25T15:51:44;4.70;;;3.60;;
7517;SDS011;3800;48.922;9.444;2023-02-25T15:56:50;9.90;;;5.50;;
7517;SDS011;3800;48.922;9.444;2023-02-25T16:01:58;5.93;;;3.00;;
7517;SDS011;3800;48.922;9.444;2023-02-25T16:07:12;4.20;;;2.93;;
7517;SDS011;3800;48.922;9.444;2023-02-25T16:09:40;3.37;;;2.90;;
7517;SDS011;3800;48.922;9.444;2023-02-25T16:12:09;3.10;;;2.60;;
7517;SDS011;3800;48.922;9.444;2023-02-25T16:14:35;3.87;;;2.80;;
7517;SDS011;3800;48.922;9.444;2023-02-25T16:17:06;5.47;;;2.60;;
7517;SDS011;3800;48.922;9.444;2023-02-25T16:19:42;4.70;;;3.03;;
7517;SDS011;3800;48.922;9.444;2023-02-25T16:22:13;5.00;;;3.27;;
7517;SDS011;3800;48.922;9.444;2023-02-25T16:24:42;7.47;;;4.10;;
7517;SDS011;3800;48.922;9.444;2023-02-25T16:27:13;5.47;;;3.50;;
7517;SDS011;3800;48.922;9.444;2023-02-25T16:29:50;7.03;;;4.60;;
7517;SDS011;3800;48.922;9.444;2023-02-25T16:32:23;6.67;;;4.40;;
7517;SDS011;3800;48.922;9.444;2023-02-25T16:34:54;8.13;;;5.07;;
7517;SDS011;3800;48.922;9.444;2023-02-25T16:37:26;6.73;;;4.17;;
7517;SDS011;3800;48.922;9.444;2023-02-25T16:39:54;7.17;;;4.70;;
7517;SDS011;3800;48.922;9.444;2023-02-25T16:42:21;6.83;;;4.50;;
7517;SDS011;3800;48.922;9.444;2023-02-25T16:47:24;6.07;;;4.63;;
7517;SDS011;3800;48.922;9.444;2023-02-25T16:49:54;6.47;;;3.33;;
7517;SDS011;3800;48.922;9.444;2023-02-25T16:52:25;4.97;;;3.77;;
7517;SDS011;3800;48.922;9.444;2023-02-25T16:54:55;7.40;;;4.00;;
7517;SDS011;3800;48.922;9.444;2023-02-25T16:57:20;5.30;;;4.53;;
7517;SDS011;3800;48.922;9.444;2023-02-25T16:59:48;6.13;;;4.60;;
7517;SDS011;3800;48.922;9.444;2023-02-25T17:02:20;3.97;;;3.40;;
7517;SDS011;3800;48.922;9.444;2023-02-25T17:04:48;5.47;;;3.90;;
7517;SDS011;3800;48.922;9.444;2023-02-25T17:07:16;4.40;;;3.90;;
7517;SDS011;3800;48.922;9.444;2023-02-25T17:09:46;6.10;;;3.77;;
7517;SDS011;3800;48.922;9.444;2023-02-25T17:12:17;7.23;;;3.37;;
7517;SDS011;3800;48.922;9.444;2023-02-25T17:14:44;7.70;;;4.90;;
7517;SDS011;3800;48.922;9.444;2023-02-25T17:17:15;6.10;;;4.27;;
7517;SDS011;3800;48.922;9.444;2023-02-25T17:19:43;4.27;;;3.03;;
7517;SDS011;3800;48.922;9.444;2023-02-25T17:22:12;4.30;;;3.00;;
7517;SDS011;3800;48.922;9.444;2023-02-25T17:24:42;4.20;;;2.87;;
7517;SDS011;3800;48.922;9.444;2023-02-25T17:27:10;2.30;;;2.10;;
7517;SDS011;3800;48.922;9.444;2023-02-25T17:29:37;2.73;;;2.33;;
7517;SDS011;3800;48.922;9.444;2023-02-25T17:32:11;4.17;;;2.10;;
7517;SDS011;3800;48.922;9.444;2023-02-25T17:34:37;4.20;;;2.40;;
7517;SDS011;3800;48.922;9.444;2023-02-25T17:37:05;4.77;;;2.33;;